Time;durP1;ratioP1;P1;durP2;ratioP2;P2;SDS_P1;SDS_P2;PMS_P1;PMS_P2;Temp;Humidity;BMP_temperature;BMP_pressure;BME280_temperature;BME280_humidity;BME280_pressure;Samples;Min_cycle;Max_cycle;Signal;HPM_P1;HPM_P2
2022/07/29 00:00:15;;;;;;;4.83;2.00;;;22.10;65.10;;;;;;5021808;28;20073;-76
2022/07/29 00:02:41;;;;;;;3.70;2.23;;;22.10;64.60;;;;;;5004490;28;20093;-76
2022/07/29 00:05:08;;;;;;;2.93;1.83;;;22.10;65.80;;;;;;5023393;28;20032;-76
2022/07/29 00:07:33;;;;;;;5.50;2.20;;;22.10;65.90;;;;;;5016944;28;20060;-76
2022/07/29 00:09:59;;;;;;;3.70;1.83;;;22.10;65.90;;;;;;5003715;28;20058;-76
2022/07/29 00:12:25;;;;;;;2.17;1.70;;;22.10;65.80;;;;;;5003627;28;20030;-76
2022/07/29 00:14:52;;;;;;;7.20;2.07;;;22.10;65.40;;;;;;5016574;28;20026;-77
2022/07/29 00:17:17;;;;;;;2.72;1.80;;;22.00;64.70;;;;;;5006987;28;20552;-76
2022/07/29 00:19:43;;;;;;;3.10;1.80;;;22.00;64.70;;;;;;5006968;28;20026;-76
2022/07/29 00:22:09;;;;;;;3.07;1.63;;;22.00;65.40;;;;;;5012233;28;20348;-75
2022/07/29 00:24:34;;;;;;;5.10;2.00;;;22.00;64.30;;;;;;5003218;28;20256;-75
2022/07/29 00:27:00;;;;;;;11.20;2.00;;;22.00;63.70;;;;;;5003353;28;20233;-75
2022/07/29 00:29:26;;;;;;;3.63;2.40;;;22.00;63.90;;;;;;5003033;28;20431;-75
2022/07/29 00:31:52;;;;;;;5.13;2.13;;;22.00;65.30;;;;;;5003531;28;20042;-76
2022/07/29 00:37:02;;;;;;;4.05;1.80;;;22.00;61.30;;;;;;5003062;28;20073;-75
2022/07/29 00:39:28;;;;;;;4.25;2.33;;;22.00;61.40;;;;;;5004116;28;20030;-75
2022/07/29 00:41:54;;;;;;;4.60;2.07;;;22.00;63.10;;;;;;5002832;28;20030;-75
2022/07/29 00:44:19;;;;;;;3.10;2.00;;;22.00;62.70;;;;;;5002710;28;20033;-76
2022/07/29 00:46:45;;;;;;;3.80;1.70;;;22.00;62.60;;;;;;5002863;28;20038;-75
2022/07/29 00:49:11;;;;;;;3.33;1.80;;;22.00;64.70;;;;;;5002681;28;20333;-75
2022/07/29 00:51:37;;;;;;;3.47;1.93;;;22.00;61.70;;;;;;5002633;28;20022;-75
2022/07/29 00:54:03;;;;;;;5.93;1.80;;;22.00;61.50;;;;;;4999339;28;20022;-76
2022/07/29 00:56:31;;;;;;;3.15;1.70;;;22.00;61.70;;;;;;4985989;28;20038;-76
2022/07/29 00:58:57;;;;;;;4.97;1.38;;;22.00;63.10;;;;;;5002788;28;20233;-75
2022/07/29 01:01:23;;;;;;;4.18;1.42;;;22.00;63.00;;;;;;5003064;28;20277;-75
2022/07/29 01:03:49;;;;;;;2.47;1.80;;;22.00;62.80;;;;;;5002739;28;20073;-76
2022/07/29 01:06:18;;;;;;;3.70;1.87;;;22.00;64.20;;;;;;5002669;28;20285;-75
2022/07/29 01:08:47;;;;;;;4.25;1.55;;;22.00;62.70;;;;;;5002401;28;20330;-75
2022/07/29 01:11:13;;;;;;;7.25;1.65;;;22.00;61.10;;;;;;5002836;28;20022;-75
2022/07/29 01:13:38;;;;;;;3.47;1.50;;;22.00;62.80;;;;;;5002236;28;20049;-75
2022/07/29 01:16:17;;;;;;;3.80;1.80;;;22.00;63.40;;;;;;5002259;28;20034;-75
2022/07/29 01:18:46;;;;;;;3.65;1.75;;;22.00;63.30;;;;;;5003501;28;20038;-75
2022/07/29 01:21:33;;;;;;;3.67;1.85;;;22.00;63.10;;;;;;5002508;28;20241;-75
2022/07/29 01:24:29;;;;;;;3.50;1.85;;;22.00;62.80;;;;;;4996208;28;20010;-75
2022/07/29 01:27:16;;;;;;;2.97;1.83;;;22.00;63.30;;;;;;5002373;28;20042;-76
2022/07/29 01:29:46;;;;;;;2.13;1.70;;;21.90;62.80;;;;;;4985159;28;20026;-76
2022/07/29 01:32:18;;;;;;;2.90;2.00;;;21.80;62.60;;;;;;5003454;28;20033;-75
2022/07/29 01:35:12;;;;;;;3.55;1.65;;;21.80;62.80;;;;;;4994198;28;20029;-76
2022/07/29 01:38:10;;;;;;;5.55;2.20;;;21.80;64.00;;;;;;5020713;23;20053;-77
2022/07/29 01:40:52;;;;;;;3.75;1.90;;;21.80;64.10;;;;;;5022778;28;20021;-77
2022/07/29 01:43:28;;;;;;;4.13;2.35;;;21.80;64.10;;;;;;5005790;28;20018;-77
2022/07/29 01:46:01;;;;;;;2.40;1.70;;;21.70;64.10;;;;;;5016093;28;20014;-77
2022/07/29 01:48:45;;;;;;;4.13;2.00;;;21.80;65.10;;;;;;5008389;28;20076;-77
2022/07/29 01:51:32;;;;;;;4.60;2.13;;;21.70;66.10;;;;;;5002938;28;20045;-77
2022/07/29 01:54:03;;;;;;;2.10;1.90;;;21.70;65.40;;;;;;5002238;28;20030;-76
2022/07/29 01:56:30;;;;;;;3.28;2.05;;;21.70;65.00;;;;;;5003654;28;20057;-76
2022/07/29 01:58:56;;;;;;;4.47;2.15;;;21.70;65.70;;;;;;4993740;28;20235;-76
2022/07/29 02:01:22;;;;;;;4.57;2.00;;;21.70;66.40;;;;;;4967163;28;20110;-76
2022/07/29 02:03:48;;;;;;;3.97;2.47;;;21.60;66.90;;;;;;4966952;28;20026;-76
2022/07/29 02:06:17;;;;;;;5.47;2.03;;;21.60;66.00;;;;;;4967077;28;20041;-76
2022/07/29 02:08:43;;;;;;;2.95;1.80;;;21.50;66.40;;;;;;4958654;28;20030;-76
2022/07/29 02:11:08;;;;;;;4.87;2.20;;;21.50;66.70;;;;;;4986379;28;20089;-76
2022/07/29 02:13:35;;;;;;;5.67;2.10;;;21.50;67.40;;;;;;5002136;28;20054;-76
2022/07/29 02:16:02;;;;;;;6.13;2.08;;;21.50;67.00;;;;;;5002515;28;20306;-77
2022/07/29 02:18:28;;;;;;;3.47;1.80;;;21.50;66.50;;;;;;4986262;28;20022;-76
2022/07/29 02:20:54;;;;;;;6.50;1.80;;;21.40;66.20;;;;;;5002508;28;20113;-77
2022/07/29 02:23:22;;;;;;;3.63;2.10;;;21.40;67.40;;;;;;4969577;28;20046;-77
2022/07/29 02:25:49;;;;;;;6.68;1.90;;;21.40;67.40;;;;;;4969656;28;20033;-76
2022/07/29 02:28:15;;;;;;;3.50;2.17;;;21.40;66.90;;;;;;4969942;28;20077;-76
2022/07/29 02:30:41;;;;;;;3.13;2.08;;;21.40;67.70;;;;;;4970147;28;20034;-76
2022/07/29 02:33:09;;;;;;;2.53;1.70;;;21.40;67.80;;;;;;4985803;28;20018;-76
2022/07/29 02:35:34;;;;;;;3.15;1.85;;;21.30;68.50;;;;;;4970002;28;20105;-76
2022/07/29 02:40:45;;;;;;;3.90;1.75;;;21.30;69.20;;;;;;5002181;28;20045;-76
2022/07/29 02:43:10;;;;;;;3.03;2.07;;;21.20;69.20;;;;;;5001748;28;20014;-76
2022/07/29 02:45:36;;;;;;;4.80;1.97;;;21.20;68.10;;;;;;5001856;28;20022;-76
2022/07/29 02:48:08;;;;;;;2.80;2.03;;;21.20;68.90;;;;;;5001877;28;20030;-76
2022/07/29 02:50:41;;;;;;;3.08;1.80;;;21.10;68.90;;;;;;4985940;28;20333;-76
2022/07/29 02:53:16;;;;;;;3.83;2.00;;;21.10;69.10;;;;;;5001358;28;20030;-76
2022/07/29 02:56:10;;;;;;;4.32;1.70;;;21.10;68.20;;;;;;4985616;28;20037;-76
2022/07/29 02:58:49;;;;;;;4.30;2.13;;;21.10;69.30;;;;;;5000520;28;20342;-76
2022/07/29 03:01:16;;;;;;;5.22;1.95;;;21.00;68.60;;;;;;4985751;28;20052;-76
2022/07/29 03:03:44;;;;;;;4.70;2.28;;;21.00;69.20;;;;;;4969547;28;20033;-77
2022/07/29 03:06:10;;;;;;;4.15;1.88;;;21.00;69.60;;;;;;4985892;28;20034;-76
2022/07/29 03:08:36;;;;;;;3.57;1.77;;;21.00;70.20;;;;;;4981459;28;20029;-76
2022/07/29 03:11:02;;;;;;;4.83;2.10;;;20.90;70.40;;;;;;4966255;28;20034;-77
2022/07/29 03:13:27;;;;;;;5.10;1.60;;;20.90;70.40;;;;;;4965948;28;20033;-77
2022/07/29 03:15:53;;;;;;;3.67;1.70;;;20.80;70.30;;;;;;4966211;28;20138;-76
2022/07/29 03:18:19;;;;;;;2.97;1.73;;;20.80;70.30;;;;;;4966000;28;20863;-77
2022/07/29 03:20:45;;;;;;;4.13;2.07;;;20.80;71.10;;;;;;4966019;28;20354;-77
2022/07/29 03:23:10;;;;;;;3.80;2.10;;;20.80;70.80;;;;;;4949295;28;20270;-77
2022/07/29 03:25:36;;;;;;;3.90;2.20;;;20.80;71.20;;;;;;4982088;28;20446;-77
2022/07/29 03:28:02;;;;;;;3.17;2.33;;;20.70;72.70;;;;;;4965902;28;20230;-77
2022/07/29 03:30:30;;;;;;;7.47;2.43;;;20.70;72.70;;;;;;4983147;28;20089;-77
2022/07/29 03:32:56;;;;;;;2.05;1.83;;;20.70;72.10;;;;;;4981789;28;20048;-77
2022/07/29 03:35:22;;;;;;;3.53;2.23;;;20.70;72.60;;;;;;4983005;28;20341;-77
2022/07/29 03:37:48;;;;;;;3.35;2.00;;;20.60;72.40;;;;;;4983912;28;20042;-77
2022/07/29 03:40:38;;;;;;;3.90;1.93;;;20.60;72.60;;;;;;5006576;28;20377;-76
2022/07/29 03:43:03;;;;;;;4.32;1.98;;;20.60;72.30;;;;;;5005147;28;20258;-77
2022/07/29 03:45:30;;;;;;;4.80;2.00;;;20.50;72.10;;;;;;5005199;28;20030;-76
2022/07/29 03:48:00;;;;;;;3.80;2.20;;;20.50;72.60;;;;;;5005124;28;20060;-76
2022/07/29 03:50:26;;;;;;;5.13;2.20;;;20.50;72.70;;;;;;5005026;28;20053;-76
2022/07/29 03:52:52;;;;;;;3.17;1.87;;;20.50;72.40;;;;;;5004837;28;20054;-76
2022/07/29 03:55:17;;;;;;;5.37;2.27;;;20.40;72.50;;;;;;5005193;28;20022;-76
2022/07/29 03:57:44;;;;;;;5.30;2.83;;;20.40;72.80;;;;;;5006310;28;20041;-76
2022/07/29 04:00:10;;;;;;;4.72;1.70;;;20.40;72.30;;;;;;5005203;28;20037;-76
2022/07/29 04:02:36;;;;;;;3.72;1.98;;;20.40;72.00;;;;;;4988835;28;20270;-77
2022/07/29 04:05:02;;;;;;;7.37;2.20;;;20.40;73.60;;;;;;5004617;28;20029;-76
2022/07/29 04:07:27;;;;;;;3.50;2.00;;;20.30;72.90;;;;;;5006062;28;20026;-76
2022/07/29 04:09:53;;;;;;;3.57;2.00;;;20.30;73.60;;;;;;5004656;28;20034;-77
2022/07/29 04:12:20;;;;;;;3.00;2.03;;;20.20;73.60;;;;;;5006162;28;20049;-77
2022/07/29 04:14:46;;;;;;;3.28;1.88;;;20.20;73.90;;;;;;5005801;28;20089;-75
2022/07/29 04:17:12;;;;;;;4.83;2.20;;;20.20;73.90;;;;;;5006064;28;20034;-75
2022/07/29 04:19:38;;;;;;;7.37;2.30;;;20.20;74.30;;;;;;5006128;28;20019;-75
2022/07/29 04:22:04;;;;;;;2.93;2.00;;;20.20;74.30;;;;;;5005918;28;20022;-75
2022/07/29 04:24:29;;;;;;;6.50;2.33;;;20.20;73.80;;;;;;5004330;28;20085;-76
2022/07/29 04:26:55;;;;;;;2.73;1.80;;;20.20;73.60;;;;;;5004163;28;20221;-71
2022/07/29 04:29:21;;;;;;;4.97;2.30;;;20.10;74.40;;;;;;5005543;28;20049;-71
2022/07/29 04:31:46;;;;;;;2.20;1.83;;;20.10;73.80;;;;;;5005457;28;20030;-70
2022/07/29 04:34:12;;;;;;;5.00;2.20;;;20.10;74.70;;;;;;5004160;28;20037;-70
2022/07/29 04:36:38;;;;;;;5.50;2.20;;;20.10;73.80;;;;;;5004271;28;20380;-70
2022/07/29 04:39:04;;;;;;;5.57;3.03;;;20.10;74.80;;;;;;5005182;28;20092;-71
2022/07/29 04:41:30;;;;;;;5.50;2.50;;;20.10;76.30;;;;;;5005294;28;20092;-70
2022/07/29 04:43:56;;;;;;;4.75;2.47;;;20.10;77.30;;;;;;5005023;28;20021;-70
2022/07/29 04:46:22;;;;;;;6.10;3.00;;;20.10;76.90;;;;;;5001497;28;20274;-71
2022/07/29 04:48:48;;;;;;;7.07;2.27;;;20.10;77.60;;;;;;5004420;28;20026;-70
2022/07/29 04:51:17;;;;;;;4.90;2.30;;;20.10;77.30;;;;;;5004943;28;20018;-70
2022/07/29 04:53:42;;;;;;;6.55;2.50;;;20.10;75.60;;;;;;5004153;28;20285;-70
2022/07/29 04:56:08;;;;;;;5.30;2.03;;;20.10;76.70;;;;;;5005151;28;20014;-70
2022/07/29 04:58:35;;;;;;;3.63;2.27;;;20.10;76.00;;;;;;5004577;28;20020;-72
2022/07/29 05:01:01;;;;;;;6.32;3.05;;;20.20;76.60;;;;;;5003635;28;20026;-69
2022/07/29 05:03:26;;;;;;;6.17;2.60;;;20.20;76.70;;;;;;5004565;28;20277;-69
2022/07/29 05:05:52;;;;;;;3.37;2.23;;;20.20;76.40;;;;;;5004531;28;20014;-69
2022/07/29 05:08:18;;;;;;;3.60;1.90;;;20.20;76.80;;;;;;5003972;28;20110;-69
2022/07/29 05:10:43;;;;;;;4.50;2.00;;;20.20;77.20;;;;;;5004919;28;20397;-69
2022/07/29 05:13:09;;;;;;;3.87;2.03;;;20.20;76.30;;;;;;5004578;28;20253;-70
2022/07/29 05:15:35;;;;;;;3.47;2.47;;;20.20;76.80;;;;;;5004793;28;20085;-70
2022/07/29 05:18:01;;;;;;;7.27;1.87;;;20.20;77.30;;;;;;4992820;28;20029;-70
2022/07/29 05:20:28;;;;;;;5.63;2.03;;;20.20;77.10;;;;;;5024240;28;20568;-69
2022/07/29 05:22:58;;;;;;;5.68;2.40;;;20.20;79.70;;;;;;5022604;28;20407;-69
2022/07/29 05:25:28;;;;;;;6.57;2.58;;;20.20;79.50;;;;;;5024237;28;20329;-71
2022/07/29 05:27:54;;;;;;;4.22;2.53;;;20.20;80.20;;;;;;5024051;28;20025;-70
2022/07/29 05:30:20;;;;;;;6.47;2.60;;;20.20;80.20;;;;;;5024133;28;20096;-69
2022/07/29 05:32:46;;;;;;;5.78;2.75;;;20.20;83.30;;;;;;5023704;28;20068;-70
2022/07/29 05:35:12;;;;;;;7.07;2.30;;;20.10;83.40;;;;;;5023822;28;20045;-70
2022/07/29 05:37:37;;;;;;;4.53;2.67;;;20.10;81.90;;;;;;5023322;28;20068;-70
2022/07/29 05:40:04;;;;;;;5.30;2.63;;;20.10;79.60;;;;;;5005269;28;20273;-70
2022/07/29 05:42:30;;;;;;;5.75;2.85;;;20.10;79.30;;;;;;5004203;28;20044;-70
2022/07/29 05:44:56;;;;;;;8.32;2.70;;;20.10;79.70;;;;;;5003832;28;20026;-70
2022/07/29 05:47:22;;;;;;;3.40;2.53;;;20.10;79.40;;;;;;5003152;28;20077;-70
2022/07/29 05:49:48;;;;;;;5.93;2.28;;;20.10;78.10;;;;;;5010550;28;20094;-70
2022/07/29 05:52:14;;;;;;;7.50;2.00;;;20.10;77.30;;;;;;5023595;28;20056;-70
2022/07/29 05:54:40;;;;;;;5.25;2.20;;;20.10;77.90;;;;;;5004110;28;20049;-70
2022/07/29 05:57:06;;;;;;;5.33;2.80;;;20.10;77.50;;;;;;4984360;28;20030;-71
2022/07/29 05:59:36;;;;;;;5.30;2.37;;;20.10;77.90;;;;;;4984449;28;20081;-71
2022/07/29 06:02:02;;;;;;;5.75;2.50;;;20.20;75.50;;;;;;4983278;28;20026;-71
2022/07/29 06:04:27;;;;;;;5.23;2.20;;;20.20;75.90;;;;;;4999229;28;20026;-71
2022/07/29 06:06:53;;;;;;;5.37;2.20;;;20.40;77.00;;;;;;5003827;28;20033;-70
2022/07/29 06:09:19;;;;;;;3.83;1.97;;;20.40;75.60;;;;;;5002593;28;20022;-70
2022/07/29 06:11:44;;;;;;;4.03;2.40;;;20.50;75.40;;;;;;5003589;28;20030;-71
2022/07/29 06:14:10;;;;;;;5.30;2.70;;;20.60;74.90;;;;;;5003328;28;20026;-71
2022/07/29 06:16:36;;;;;;;4.60;2.55;;;20.70;74.30;;;;;;5002230;28;20026;-71
2022/07/29 06:19:02;;;;;;;11.50;7.23;;;20.80;75.30;;;;;;5003405;28;20317;-71
2022/07/29 06:21:28;;;;;;;3.97;2.43;;;20.90;74.90;;;;;;5014393;28;20025;-71
2022/07/29 06:23:53;;;;;;;7.63;3.40;;;21.00;72.60;;;;;;5022595;28;20026;-71
2022/07/29 06:26:19;;;;;;;4.93;3.00;;;21.20;70.30;;;;;;5018515;28;20037;-80
2022/07/29 06:28:45;;;;;;;5.47;2.88;;;21.20;70.80;;;;;;5003781;28;20025;-77
2022/07/29 06:31:11;;;;;;;4.20;2.60;;;21.30;72.10;;;;;;5003428;28;20034;-77
2022/07/29 06:33:37;;;;;;;5.17;2.27;;;21.40;73.20;;;;;;5003207;28;20045;-77
2022/07/29 06:36:05;;;;;;;13.50;5.40;;;21.50;72.50;;;;;;5006693;28;20279;-80
2022/07/29 06:38:32;;;;;;;6.05;3.60;;;21.50;72.10;;;;;;4953544;28;20026;-74
2022/07/29 06:41:01;;;;;;;8.00;3.38;;;21.60;71.40;;;;;;5002208;28;20022;-75
2022/07/29 06:43:33;;;;;;;4.35;2.42;;;21.60;71.80;;;;;;5001987;28;20141;-73
2022/07/29 06:46:04;;;;;;;3.78;2.30;;;21.70;71.60;;;;;;5003249;28;20624;-74
2022/07/29 06:48:30;;;;;;;7.03;3.30;;;21.70;71.70;;;;;;5002112;28;20034;-74
2022/07/29 06:50:56;;;;;;;4.13;2.80;;;21.80;71.50;;;;;;5003125;28;20073;-75
2022/07/29 06:53:22;;;;;;;6.27;2.50;;;21.90;71.70;;;;;;5005699;28;20040;-75
2022/07/29 06:55:47;;;;;;;7.10;2.33;;;21.90;71.50;;;;;;5022750;28;20026;-74
2022/07/29 06:58:15;;;;;;;3.30;2.20;;;22.00;74.70;;;;;;5022372;28;20029;-75
2022/07/29 07:00:42;;;;;;;5.00;2.60;;;22.10;75.80;;;;;;5021290;28;20040;-74
2022/07/29 07:03:07;;;;;;;11.90;3.60;;;22.00;80.20;;;;;;5020801;28;20316;-75
2022/07/29 07:05:33;;;;;;;2.93;2.10;;;22.10;78.30;;;;;;5022393;28;20101;-74
2022/07/29 07:07:59;;;;;;;6.77;2.83;;;22.10;73.20;;;;;;5020198;28;20030;-74
2022/07/29 07:10:24;;;;;;;4.47;2.60;;;22.10;77.40;;;;;;5002611;28;20077;-75
2022/07/29 07:12:50;;;;;;;11.20;6.90;;;22.20;79.90;;;;;;5001856;28;20030;-74
2022/07/29 07:15:16;;;;;;;4.15;2.83;;;22.20;74.50;;;;;;5002751;28;20030;-75
2022/07/29 07:17:42;;;;;;;6.53;2.57;;;22.20;72.40;;;;;;5002594;28;20041;-75
2022/07/29 07:20:08;;;;;;;3.55;2.25;;;22.30;72.00;;;;;;5003005;28;20022;-75
2022/07/29 07:22:34;;;;;;;6.90;3.28;;;22.40;72.30;;;;;;5002826;28;20566;-75
2022/07/29 07:25:00;;;;;;;8.17;3.40;;;22.50;72.20;;;;;;5002510;28;20109;-75
2022/07/29 07:27:27;;;;;;;5.30;2.80;;;22.60;71.20;;;;;;5015547;28;20029;-75
2022/07/29 07:29:52;;;;;;;9.70;3.28;;;22.70;72.80;;;;;;5022307;28;20233;-75
2022/07/29 07:32:19;;;;;;;4.10;2.60;;;22.80;71.90;;;;;;5022420;28;20018;-75
2022/07/29 07:34:45;;;;;;;5.03;2.85;;;22.90;71.50;;;;;;5022082;28;20025;-75
2022/07/29 07:37:10;;;;;;;4.37;2.60;;;23.00;72.50;;;;;;5022187;28;20109;-75
2022/07/29 07:39:36;;;;;;;5.33;2.33;;;23.00;74.60;;;;;;5007690;28;20229;-75
2022/07/29 07:42:02;;;;;;;4.43;2.80;;;23.10;76.50;;;;;;5002729;28;20446;-75
2022/07/29 07:44:28;;;;;;;6.18;3.08;;;23.10;74.60;;;;;;5002212;28;20406;-74
2022/07/29 07:46:53;;;;;;;5.43;2.40;;;23.10;72.70;;;;;;5002481;28;20058;-75
2022/07/29 07:49:19;;;;;;;3.53;2.80;;;23.20;72.70;;;;;;5003596;28;20037;-84
2022/07/29 07:51:45;;;;;;;5.67;3.20;;;23.20;73.10;;;;;;5002895;28;20030;-84
2022/07/29 07:54:11;;;;;;;6.10;2.97;;;23.20;74.20;;;;;;5003171;28;20320;-81
2022/07/29 07:56:37;;;;;;;7.20;3.50;;;23.30;74.10;;;;;;5005341;28;20265;-81
2022/07/29 07:59:02;;;;;;;5.47;3.00;;;23.30;76.80;;;;;;5004446;28;20275;-81
2022/07/29 08:01:28;;;;;;;7.53;4.13;;;23.40;78.20;;;;;;5022239;28;20022;-81
2022/07/29 08:03:54;;;;;;;7.40;4.00;;;23.40;74.20;;;;;;5039234;28;20053;-81
2022/07/29 08:06:20;;;;;;;10.33;3.27;;;23.40;73.10;;;;;;5024033;28;20034;-81
2022/07/29 08:08:45;;;;;;;5.13;2.47;;;23.40;71.70;;;;;;4998616;28;20288;-81
2022/07/29 08:11:11;;;;;;;5.97;3.20;;;23.40;73.40;;;;;;4986501;28;20273;-81
2022/07/29 08:13:39;;;;;;;8.30;3.72;;;23.50;74.30;;;;;;5002449;28;20030;-80
2022/07/29 08:16:11;;;;;;;6.45;3.13;;;23.50;74.10;;;;;;4971636;28;20304;-80
2022/07/29 08:18:38;;;;;;;4.82;3.03;;;23.70;73.40;;;;;;5002936;28;20022;-81
2022/07/29 08:21:04;;;;;;;;;;;23.70;73.20;;;;;;4987173;28;20029;-81
2022/07/29 08:24:42;;;;;;;5.57;3.13;;;23.80;73.60;;;;;;5002634;28;20208;-81
2022/07/29 08:26:19;;;;;;;8.20;3.40;;;23.90;73.00;;;;;;5004419;28;20105;-81
2022/07/29 08:28:50;;;;;;;5.43;2.90;;;24.00;71.30;;;;;;5007012;28;20037;-80
2022/07/29 08:31:16;;;;;;;7.22;2.95;;;24.10;71.40;;;;;;5005207;28;20089;-82
2022/07/29 08:33:42;;;;;;;4.60;2.60;;;24.20;71.40;;;;;;5027850;28;20022;-81
2022/07/29 08:36:08;;;;;;;4.70;2.95;;;24.30;72.20;;;;;;4977875;28;20030;-81
2022/07/29 08:38:34;;;;;;;5.93;3.42;;;24.50;71.70;;;;;;5000611;28;20147;-81
2022/07/29 08:41:02;;;;;;;8.15;3.15;;;24.60;72.80;;;;;;4988421;28;20086;-80
2022/07/29 08:43:28;;;;;;;5.22;2.97;;;24.80;69.90;;;;;;4988243;28;20237;-80
2022/07/29 08:45:54;;;;;;;6.10;3.05;;;25.00;70.00;;;;;;4988569;28;20079;-81
2022/07/29 08:48:22;;;;;;;4.88;3.60;;;25.10;69.10;;;;;;4987964;28;20058;-81
2022/07/29 08:50:49;;;;;;;6.35;3.80;;;25.20;69.30;;;;;;4988101;28;20023;-81
2022/07/29 08:53:16;;;;;;;5.18;3.55;;;25.20;68.00;;;;;;4987348;28;20377;-81
2022/07/29 08:55:49;;;;;;;4.90;3.55;;;25.30;68.40;;;;;;4988278;28;20030;-82
2022/07/29 08:58:15;;;;;;;3.83;3.20;;;25.30;70.20;;;;;;4988241;28;20034;-82
2022/07/29 09:00:46;;;;;;;5.32;3.28;;;25.30;74.80;;;;;;4988794;28;20035;-81
2022/07/29 09:03:19;;;;;;;4.97;3.03;;;25.40;78.80;;;;;;4987329;28;20027;-81
2022/07/29 09:05:46;;;;;;;6.18;3.10;;;25.30;72.70;;;;;;4972197;28;20027;-82
2022/07/29 09:08:15;;;;;;;6.85;3.20;;;25.40;70.90;;;;;;4986847;28;20019;-82
2022/07/29 09:10:41;;;;;;;6.32;3.78;;;25.50;73.40;;;;;;4987680;28;20401;-82
2022/07/29 09:13:08;;;;;;;8.32;3.33;;;25.60;73.10;;;;;;4988003;28;20030;-81
2022/07/29 09:15:34;;;;;;;6.97;3.17;;;25.70;74.00;;;;;;4988846;28;20065;-80
2022/07/29 09:18:00;;;;;;;7.18;3.38;;;25.80;70.70;;;;;;4987584;28;20031;-81
2022/07/29 09:21:57;;;;;;;6.18;3.20;;;25.90;71.80;;;;;;4986293;28;20027;-80
2022/07/29 09:23:13;;;;;;;4.45;3.17;;;26.00;76.00;;;;;;4986191;28;20438;-81
2022/07/29 09:25:40;;;;;;;6.60;3.70;;;26.10;75.80;;;;;;4985866;28;20030;-81
2022/07/29 09:28:07;;;;;;;7.35;3.38;;;26.10;75.80;;;;;;4986931;28;20334;-81
2022/07/29 09:30:33;;;;;;;6.65;3.35;;;26.10;74.30;;;;;;5003014;28;20907;-81
2022/07/29 09:33:01;;;;;;;5.28;3.50;;;26.20;76.20;;;;;;4987645;28;20165;-81
2022/07/29 09:35:27;;;;;;;7.75;3.65;;;26.20;73.60;;;;;;4970237;28;20027;-80
2022/07/29 09:37:53;;;;;;;4.68;2.97;;;26.20;74.40;;;;;;4987729;28;20031;-81
2022/07/29 09:40:24;;;;;;;5.60;3.25;;;26.30;76.50;;;;;;5005858;28;20288;-81
2022/07/29 09:42:56;;;;;;;4.63;3.42;;;26.30;71.80;;;;;;4991443;28;20026;-82
2022/07/29 09:45:40;;;;;;;5.13;3.15;;;26.30;71.80;;;;;;4975611;28;20229;-80
2022/07/29 09:48:23;;;;;;;5.47;3.78;;;26.30;75.10;;;;;;4992253;28;20030;-81
2022/07/29 09:50:49;;;;;;;4.47;2.83;;;26.20;70.60;;;;;;4991662;28;20222;-82
2022/07/29 09:53:31;;;;;;;6.72;3.17;;;26.20;71.10;;;;;;4974493;28;20026;-80
2022/07/29 09:55:57;;;;;;;12.27;3.38;;;26.20;68.90;;;;;;5007599;28;20152;-80
2022/07/29 09:58:22;;;;;;;5.80;3.08;;;26.20;65.20;;;;;;4973880;28;20018;-81
2022/07/29 10:00:50;;;;;;;4.82;2.95;;;26.20;66.10;;;;;;5007313;28;20068;-81
2022/07/29 10:03:17;;;;;;;6.97;3.40;;;26.20;66.90;;;;;;5009103;28;20018;-82
2022/07/29 10:05:43;;;;;;;;;;;26.30;65.90;;;;;;4993411;28;20025;-80
2022/07/29 10:08:12;;;;;;;4.72;3.08;;;26.30;65.50;;;;;;5007511;28;19956;-81
2022/07/29 10:10:41;;;;;;;7.50;3.63;;;26.30;69.40;;;;;;5007607;28;20070;-82
2022/07/29 10:13:12;;;;;;;5.35;3.55;;;26.40;72.00;;;;;;4991067;28;20045;-82
2022/07/29 10:15:43;;;;;;;4.50;3.38;;;26.40;73.80;;;;;;4991815;28;20311;-81
2022/07/29 10:18:09;;;;;;;4.40;3.58;;;26.50;76.30;;;;;;5007355;28;20033;-81
2022/07/29 10:20:35;;;;;;;4.10;3.47;;;26.50;72.90;;;;;;5007720;28;20034;-81
2022/07/29 10:23:01;;;;;;;5.40;3.80;;;26.60;68.40;;;;;;5006030;28;20034;-82
2022/07/29 10:25:27;;;;;;;4.28;3.67;;;26.70;67.30;;;;;;5008126;28;20014;-82
2022/07/29 10:27:53;;;;;;;4.72;3.90;;;26.70;69.90;;;;;;5006274;28;20036;-81
2022/07/29 10:30:19;;;;;;;5.82;3.70;;;26.80;75.70;;;;;;4991213;28;20073;-82
2022/07/29 10:33:29;;;;;;;4.13;3.42;;;26.90;74.80;;;;;;5007380;28;20105;-81
2022/07/29 10:36:15;;;;;;;7.78;3.85;;;26.90;67.30;;;;;;5008752;28;20030;-82
2022/07/29 10:38:48;;;;;;;4.85;3.45;;;26.80;64.20;;;;;;5007093;28;20089;-82
2022/07/29 10:41:27;;;;;;;8.15;3.92;;;26.90;66.20;;;;;;5008269;28;20061;-82
2022/07/29 10:44:08;;;;;;;7.30;3.97;;;26.90;66.80;;;;;;5009232;28;20025;-82
2022/07/29 10:46:40;;;;;;;7.13;3.25;;;26.90;66.00;;;;;;4995069;28;20033;-82
2022/07/29 10:49:15;;;;;;;8.18;4.00;;;26.90;64.80;;;;;;4995182;28;20033;-82
2022/07/29 10:51:54;;;;;;;8.10;4.30;;;27.00;63.70;;;;;;4989389;28;20027;-82
2022/07/29 10:54:35;;;;;;;4.25;3.30;;;27.00;63.20;;;;;;5005213;28;20041;-80
2022/07/29 10:57:26;;;;;;;7.38;3.35;;;27.10;64.20;;;;;;4991031;28;20030;-81
2022/07/29 11:00:00;;;;;;;4.75;3.17;;;27.20;62.00;;;;;;5013593;28;20078;-82
2022/07/29 11:02:44;;;;;;;5.88;3.40;;;27.30;63.50;;;;;;4993791;28;20026;-80
2022/07/29 11:05:15;;;;;;;6.53;3.65;;;27.50;64.80;;;;;;4992038;28;20090;-81
2022/07/29 11:08:11;;;;;;;4.90;3.80;;;27.70;64.10;;;;;;5007388;28;20110;-80
2022/07/29 11:10:37;;;;;;;5.93;3.40;;;28.00;64.40;;;;;;4991530;28;20022;-80
2022/07/29 11:13:05;;;;;;;5.53;3.95;;;28.20;63.50;;;;;;5007730;28;20030;-82
2022/07/29 11:15:52;;;;;;;4.07;3.45;;;28.30;63.80;;;;;;4991408;28;20018;-81
2022/07/29 11:18:18;;;;;;;8.20;3.55;;;28.30;61.60;;;;;;4990124;28;20018;-82
2022/07/29 11:20:49;;;;;;;9.48;4.13;;;28.40;62.20;;;;;;5007008;28;20030;-81
2022/07/29 11:23:29;;;;;;;8.05;3.90;;;28.50;63.40;;;;;;5006318;28;20033;-82
2022/07/29 11:26:19;;;;;;;5.82;3.80;;;28.60;62.40;;;;;;5007886;28;20095;-80
2022/07/29 11:28:54;;;;;;;7.35;4.45;;;28.80;62.30;;;;;;4991261;28;20034;-80
2022/07/29 11:31:33;;;;;;;4.15;3.55;;;28.70;61.30;;;;;;5007048;28;20042;-81
2022/07/29 11:34:29;;;;;;;3.97;3.53;;;28.70;60.60;;;;;;5005741;28;20030;-79
2022/07/29 11:37:08;;;;;;;4.13;3.75;;;28.80;61.80;;;;;;5003309;28;20031;-80
2022/07/29 11:39:54;;;;;;;4.50;4.03;;;28.90;64.50;;;;;;5005975;28;20082;-82
2022/07/29 11:42:20;;;;;;;6.63;3.97;;;29.00;65.70;;;;;;5005447;28;20022;-80
2022/07/29 11:45:15;;;;;;;5.93;4.10;;;29.10;64.90;;;;;;5007204;28;20041;-80
2022/07/29 11:47:49;;;;;;;8.40;4.45;;;29.20;65.70;;;;;;5005481;28;20026;-80
2022/07/29 11:50:28;;;;;;;4.45;3.75;;;29.40;65.20;;;;;;4992394;28;20026;-80
2022/07/29 11:52:54;;;;;;;9.38;4.35;;;29.40;60.50;;;;;;4992464;28;20030;-81
2022/07/29 11:55:22;;;;;;;6.38;4.68;;;29.50;61.70;;;;;;4974386;28;20030;-81
2022/07/29 11:57:50;;;;;;;5.18;4.22;;;29.60;60.40;;;;;;4974474;28;20085;-81
2022/07/29 12:00:32;;;;;;;7.35;4.35;;;29.50;59.60;;;;;;4993947;28;20042;-82
2022/07/29 12:03:00;;;;;;;4.57;4.18;;;29.60;62.50;;;;;;4994612;28;20079;-80
2022/07/29 12:05:42;;;;;;;6.10;4.10;;;29.80;65.00;;;;;;4994152;28;20026;-81
2022/07/29 12:08:21;;;;;;;6.18;4.20;;;29.90;60.90;;;;;;5010355;28;20050;-81
2022/07/29 12:10:48;;;;;;;5.30;4.53;;;30.10;59.70;;;;;;4990536;28;20022;-81
2022/07/29 12:13:15;;;;;;;14.88;6.72;;;30.20;59.00;;;;;;4989795;28;20027;-81
2022/07/29 12:15:44;;;;;;;8.82;4.90;;;30.40;61.10;;;;;;4991898;28;20080;-81
2022/07/29 12:18:14;;;;;;;6.90;3.92;;;30.70;61.40;;;;;;4974639;28;20053;-80
2022/07/29 12:20:40;;;;;;;6.68;4.65;;;30.90;60.90;;;;;;4993317;28;20026;-81
2022/07/29 12:23:11;;;;;;;5.03;4.10;;;31.10;59.40;;;;;;4973937;28;20089;-81
2022/07/29 12:25:37;;;;;;;4.78;4.25;;;31.30;61.10;;;;;;4973633;28;20026;-81
2022/07/29 12:28:05;;;;;;;;;;;31.60;56.20;;;;;;4974522;28;20066;-81
2022/07/29 12:30:41;;;;;;;;;;;31.60;55.80;;;;;;4990028;28;19929;-80
2022/07/29 12:33:19;;;;;;;5.57;4.70;;;31.60;57.60;;;;;;4989565;28;19906;-80
2022/07/29 12:35:47;;;;;;;5.22;4.72;;;31.80;60.40;;;;;;4974117;28;20121;-81
2022/07/29 12:38:13;;;;;;;5.03;4.50;;;32.10;59.10;;;;;;4973329;28;20054;-81
2022/07/29 12:40:39;;;;;;;5.97;3.75;;;32.30;55.60;;;;;;5008249;28;20326;-80
2022/07/29 12:43:13;;;;;;;;;;;32.30;54.00;;;;;;4992402;28;20042;-81
2022/07/29 12:45:45;;;;;;;5.45;4.57;;;32.10;54.50;;;;;;5007218;28;19905;-81
2022/07/29 12:48:11;;;;;;;5.57;4.55;;;32.10;58.00;;;;;;4990322;28;20018;-81
2022/07/29 12:50:55;;;;;;;5.90;3.78;;;32.10;58.00;;;;;;4991925;28;20090;-81
2022/07/29 12:53:21;;;;;;;5.90;3.50;;;32.10;54.10;;;;;;5008555;28;20081;-81
2022/07/29 12:55:51;;;;;;;4.97;4.38;;;32.20;54.60;;;;;;4993024;28;20022;-81
2022/07/29 12:58:33;;;;;;;5.00;3.72;;;32.50;57.90;;;;;;5009055;28;20030;-81
2022/07/29 13:01:14;;;;;;;5.75;3.75;;;32.90;56.90;;;;;;4992820;28;20018;-79
2022/07/29 13:03:57;;;;;;;4.03;2.33;;;33.30;55.40;;;;;;4992032;28;20036;-82